Flight Track Log - Related Links

Times and Time Zones

All times are in EDT time to prevent confusion due to time zone crossing. See the N469CR flight status page for this flight to view local times or setup timezone preferences in your user account.

Time Position Orientation Groundspeed Altitude Reporting Facility
EDT Latitude Longitude Course Direction KTS MPH feet Rate Location/Type
Tue 05:57:37 PM 42.8260 -79.0870 246° West 146 168 3,400  Level FlightAware ADS-B
Tue 05:58:00 PM 42.8220 -79.1060 254° West 143 165 3,600 471 Climbing FlightAware ADS-B
Tue 05:58:28 PM 42.8240 -79.1300 276° West 142 163 3,800 293 Climbing FlightAware ADS-B
Tue 05:58:41 PM 42.8250 -79.1410 277° West 144 166 3,800 279 Level FlightAware ADS-B
Tue 05:59:11 PM 42.8270 -79.1650 276° West 148 170 4,000 300 Climbing FlightAware ADS-B
Tue 05:59:41 PM 42.8290 -79.1960 275° West 149 171 4,100 277 Climbing FlightAware ADS-B
Tue 06:00:16 PM 42.8300 -79.2290 272° West 148 170 4,300 300 Climbing FlightAware ADS-B
Tue 06:00:41 PM 42.8310 -79.2530 273° West 148 170 4,400 240 Climbing FlightAware ADS-B
Tue 06:01:06 PM 42.8320 -79.2760 273° West 148 170 4,500 327 Climbing FlightAware ADS-B
Tue 06:01:36 PM 42.8330 -79.3040 273° West 149 171 4,700 300 Climbing FlightAware ADS-B
Tue 06:02:06 PM 42.8340 -79.3310 273° West 150 173 4,800 327 Climbing FlightAware ADS-B
Tue 06:02:31 PM 42.8340 -79.3550 270° West 148 170 5,000 480 Climbing FlightAware ADS-B
Tue 06:02:56 PM 42.8350 -79.3790 273° West 141 162 5,200 480 Climbing FlightAware ADS-B
Tue 06:03:21 PM 42.8360 -79.3990 274° West 138 159 5,400 436 Climbing FlightAware ADS-B
Tue 06:03:51 PM 42.8360 -79.4260 270° West 134 154 5,600 436 Climbing FlightAware ADS-B
Tue 06:04:16 PM 42.8370 -79.4450 274° West 132 152 5,800 436 Climbing FlightAware ADS-B
Tue 06:04:46 PM 42.8380 -79.4700 273° West 134 154 6,000 400 Climbing FlightAware ADS-B
Tue 06:05:16 PM 42.8390 -79.4950 273° West 135 155 6,200 450 Climbing FlightAware ADS-B
Tue 06:05:26 PM 42.8390 -79.5040 270° West 135 155 6,300 450 Climbing FlightAware ADS-B
Tue 06:05:56 PM 42.8400 -79.5310 273° West 134 154 6,500 391 Climbing FlightAware ADS-B
Tue 06:06:12 PM 42.8410 -79.5430 276° West 134 154 6,600 533 Climbing FlightAware ADS-B
Tue 06:06:41 PM 42.8410 -79.5680 270° West 132 152 6,900 556 Climbing FlightAware ADS-B
Tue 06:07:06 PM 42.8420 -79.5890 274° West 132 152 7,100 400 Climbing FlightAware ADS-B
Tue 06:07:26 PM 42.8430 -79.6060 275° West 132 152 7,200 450 Climbing FlightAware ADS-B
Tue 06:07:46 PM 42.8430 -79.6200 270° West 132 152 7,400 462 Climbing FlightAware ADS-B
Tue 06:08:18 PM 42.8440 -79.6510 273° West 133 153 7,600 290 Climbing FlightAware ADS-B
Tue 06:08:48 PM 42.8450 -79.6770 273° West 141 162 7,700 103 Climbing FlightAware ADS-B
Tue 06:09:16 PM 42.8460 -79.7030 273° West 150 173 7,700  Level FlightAware ADS-B
Tue 06:09:28 PM 42.8460 -79.7140 270° West 151 174 7,700  Level FlightAware ADS-B
Tue 06:09:56 PM 42.8470 -79.7390 273° West 153 176 7,700  Level FlightAware ADS-B
Tue 06:10:14 PM 42.8480 -79.7560 275° West 153 176 7,700  Level FlightAware ADS-B
Tue 06:10:32 PM 42.8480 -79.7730 270° West 153 176 7,700  Level FlightAware ADS-B
Tue 06:10:55 PM 42.8490 -79.7960 273° West 151 174 7,700  Level FlightAware ADS-B
Tue 06:11:37 PM 42.8500 -79.8200 273° West 150 173 7,700  Level FlightAware ADS-B
Tue 06:12:06 PM 42.8510 -79.8630 272° West 153 176 7,700  Level FlightAware ADS-B
Tue 06:12:36 PM 42.8520 -79.8900 273° West 152 175 7,700  Level FlightAware ADS-B
Tue 06:13:06 PM 42.8530 -79.9200 273° West 153 176 7,700  Level FlightAware ADS-B
Tue 06:13:26 PM 42.8530 -79.9390 270° West 155 178 7,700  Level FlightAware ADS-B
Tue 06:13:56 PM 42.8540 -79.9680 273° West 152 175 7,700  Level FlightAware ADS-B
Tue 06:14:26 PM 42.8550 -79.9970 273° West 154 177 7,700  Level FlightAware ADS-B
Tue 06:14:51 PM 42.8560 -80.0210 273° West 156 180 7,700 65 Level FlightAware ADS-B
Tue 06:15:58 PM 42.8590 -80.0730 275° West 152 175 7,800  Climbing FlightAware ADS-B
Tue 06:17:41 PM 42.8770 -80.1840 283° West 156 180 7,700 -46 Descending FlightAware ADS-B
Tue 06:18:08 PM 42.8810 -80.2090 282° West 158 182 7,700  Level FlightAware ADS-B
Tue 06:18:48 PM 42.8860 -80.2430 281° West 158 182 7,700  Level FlightAware ADS-B
Tue 06:24:56 PM 42.9440 -80.5960 283° West 153 176 7,700  Level FlightAware ADS-B
Tue 06:25:34 PM 42.9500 -80.6300 284° West 153 176 7,700  Level FlightAware ADS-B
Tue 06:26:03 PM 42.9540 -80.6580 281° West 155 178 7,700  Level FlightAware ADS-B
Tue 06:26:53 PM 42.9620 -80.7060 283° West 155 178 7,700  Level FlightAware ADS-B
Tue 06:27:17 PM 42.9650 -80.7230 284° West 154 177 7,700  Level FlightAware ADS-B
Tue 06:27:45 PM 42.9710 -80.7540 285° West 155 178 7,700  Level FlightAware ADS-B
Tue 06:28:16 PM 42.9830 -80.7820 300° West 151 174 7,700  Level FlightAware ADS-B
Tue 06:28:46 PM 42.9940 -80.8060 302° West 152 175 7,700  Level FlightAware ADS-B
Tue 06:29:29 PM 43.0070 -80.8430 296° West 152 175 7,700  Level FlightAware ADS-B
Tue 06:29:54 PM 43.0140 -80.8670 292° West 154 177 7,700  Level FlightAware ADS-B
Tue 06:30:28 PM 43.0210 -80.8990 287° West 156 180 7,700  Level FlightAware ADS-B
Tue 06:30:37 PM 43.0220 -80.9060 281° West 155 178 7,700  Level FlightAware ADS-B
Tue 06:31:18 PM 43.0290 -80.9460 283° West 157 181 7,700  Level FlightAware ADS-B
Tue 06:31:40 PM 43.0330 -80.9680 284° West 155 178 7,700  Level FlightAware ADS-B
Tue 06:32:12 PM 43.0380 -81.0010 282° West 152 175 7,700  Level FlightAware ADS-B
Tue 06:32:40 PM 43.0420 -81.0220 285° West 154 177 7,700  Level FlightAware ADS-B
Tue 06:33:08 PM 43.0470 -81.0510 283° West 154 177 7,700  Level FlightAware ADS-B
Tue 06:33:25 PM 43.0490 -81.0680 279° West 152 175 7,700  Level FlightAware ADS-B
Tue 06:33:56 PM 43.0540 -81.0950 284° West 153 176 7,700  Level FlightAware ADS-B
Tue 06:34:04 PM 43.0560 -81.1030 289° West 153 176 7,700  Level FlightAware ADS-B
Tue 06:34:39 PM 43.0620 -81.1380 283° West 153 176 7,700  Level FlightAware ADS-B
Tue 06:34:51 PM 43.0630 -81.1480 278° West 154 177 7,700  Level FlightAware ADS-B
Tue 06:35:13 PM 43.0670 -81.1710 283° West 153 176 7,700  Level FlightAware ADS-B
Tue 06:35:42 PM 43.0710 -81.1950 283° West 149 171 7,700  Level FlightAware ADS-B
Tue 06:36:03 PM 43.0750 -81.2160 285° West 152 175 7,700  Level FlightAware ADS-B
Tue 06:36:24 PM 43.0780 -81.2350 282° West 152 175 7,700  Level FlightAware ADS-B
Tue 06:36:53 PM 43.0830 -81.2650 283° West 153 176 7,700  Level FlightAware ADS-B
Tue 06:37:24 PM 43.0880 -81.2910 285° West 153 176 7,700  Level FlightAware ADS-B
Tue 06:37:54 PM 43.0930 -81.3190 284° West 152 175 7,700  Level FlightAware ADS-B
Tue 06:38:16 PM 43.0970 -81.3390 285° West 152 175 7,700  Level FlightAware ADS-B
Tue 06:38:41 PM 43.1010 -81.3630 283° West 154 177 7,700  Level FlightAware ADS-B
Tue 06:38:50 PM 43.1020 -81.3720 279° West 154 177 7,700  Level FlightAware ADS-B
Tue 06:39:27 PM 43.1080 -81.4070 283° West 154 177 7,700  Level FlightAware ADS-B
Tue 06:39:51 PM 43.1120 -81.4290 284° West 148 170 7,700  Level FlightAware ADS-B
Tue 06:40:18 PM 43.1160 -81.4510 284° West 151 174 7,700  Level FlightAware ADS-B
Tue 06:40:27 PM 43.1170 -81.4640 276° West 152 175 7,700  Level FlightAware ADS-B
Tue 06:40:53 PM 43.1180 -81.4880 273° West 153 176 7,700  Level FlightAware ADS-B
Tue 06:41:19 PM 43.1200 -81.5130 276° West 156 180 7,700  Level FlightAware ADS-B
Tue 06:41:53 PM 43.1220 -81.5460 275° West 157 181 7,700  Level FlightAware ADS-B
Tue 06:42:09 PM 43.1230 -81.5630 275° West 157 181 7,700  Level FlightAware ADS-B
Tue 06:42:36 PM 43.1240 -81.5890 273° West 156 180 7,700  Level FlightAware ADS-B
Tue 06:43:08 PM 43.1250 -81.6230 272° West 156 180 7,700  Level FlightAware ADS-B
Tue 06:43:36 PM 43.1270 -81.6480 276° West 155 178 7,700  Level FlightAware ADS-B
Tue 06:43:49 PM 43.1280 -81.6600 277° West 156 180 7,700  Level FlightAware ADS-B
Tue 06:44:14 PM 43.1290 -81.6820 274° West 155 178 7,700  Level FlightAware ADS-B
Tue 06:44:48 PM 43.1310 -81.7200 274° West 156 180 7,700  Level FlightAware ADS-B
Tue 06:45:23 PM 43.1300 -81.7540 268° West 158 182 7,700  Level FlightAware ADS-B
Tue 06:45:54 PM 43.1290 -81.7840 267° West 157 181 7,700  Level FlightAware ADS-B
Tue 06:46:24 PM 43.1280 -81.8130 267° West 156 180 7,700  Level FlightAware ADS-B
Tue 06:46:41 PM 43.1280 -81.8310 270° West 156 180 7,700  Level FlightAware ADS-B
Tue 06:46:53 PM 43.1280 -81.8440 270° West 156 180 7,700  Level FlightAware ADS-B
Tue 06:47:37 PM 43.1270 -81.8900 268° West 155 178 7,700  Level FlightAware ADS-B
Tue 06:48:06 PM 43.1270 -81.9150 270° West 154 177 7,700  Level FlightAware ADS-B
Tue 06:48:24 PM 43.1260 -81.9320 265° West 155 178 7,700  Level FlightAware ADS-B
Tue 06:49:08 PM 43.1260 -81.9780 270° West 153 176 7,700  Level FlightAware ADS-B
Tue 06:49:15 PM 43.1260 -81.9830 270° West 153 176 7,700  Level FlightAware ADS-B
Tue 06:49:45 PM 43.1250 -82.0120 267° West 153 176 7,700  Level FlightAware ADS-B
Tue 06:50:28 PM 43.1250 -82.0520 270° West 154 177 7,700  Level FlightAware ADS-B
Tue 06:50:56 PM 43.1240 -82.0790 267° West 152 175 7,700  Level FlightAware ADS-B
Tue 06:51:25 PM 43.1240 -82.1080 270° West 152 175 7,700  Level FlightAware ADS-B
Tue 06:51:54 PM 43.1230 -82.1380 267° West 152 175 7,700  Level FlightAware ADS-B
Tue 06:52:08 PM 43.1230 -82.1480 270° West 151 174 7,700  Level FlightAware ADS-B
Tue 06:52:31 PM 43.1230 -82.1740 270° West 153 176 7,700  Level FlightAware ADS-B
Tue 06:53:01 PM 43.1220 -82.2040 267° West 155 178 7,700  Level FlightAware ADS-B
Tue 06:53:31 PM 43.1220 -82.2330 270° West 155 178 7,700  Level FlightAware ADS-B
Tue 06:53:45 PM 43.1210 -82.2450 263° West 155 178 7,700  Level FlightAware ADS-B
Tue 06:54:11 PM 43.1210 -82.2690 270° West 154 177 7,700  Level FlightAware ADS-B
Tue 06:54:38 PM 43.1210 -82.2950 270° West 154 177 7,700  Level FlightAware ADS-B
Tue 06:55:06 PM 43.1200 -82.3250 267° West 156 180 7,700  Level FlightAware ADS-B
Tue 06:55:38 PM 43.1200 -82.3550 270° West 157 181 7,700  Level FlightAware ADS-B
Tue 06:55:50 PM 43.1190 -82.3680 264° West 156 180 7,700  Level FlightAware ADS-B
Tue 06:56:13 PM 43.1190 -82.3910 270° West 156 180 7,700  Level FlightAware ADS-B
Tue 06:56:32 PM 43.1190 -82.4090 270° West 156 180 7,700  Level FlightAware ADS-B
Tue 06:57:03 PM 43.1180 -82.4380 267° West 156 180 7,700  Level FlightAware ADS-B
Tue 06:57:32 PM 43.1180 -82.4680 270° West 156 180 7,700  Level FlightAware ADS-B
Tue 06:57:55 PM 43.1170 -82.4880 266° West 156 180 7,700  Level FlightAware ADS-B
Tue 06:58:23 PM 43.1170 -82.5180 270° West 157 181 7,700  Level FlightAware ADS-B
Tue 06:58:49 PM 43.1160 -82.5480 267° West 156 180 7,700  Level FlightAware ADS-B
Tue 06:59:17 PM 43.1160 -82.5730 270° West 156 180 7,700  Level FlightAware ADS-B
Tue 06:59:40 PM 43.1150 -82.5960 267° West 157 181 7,700  Level FlightAware ADS-B
Tue 07:00:21 PM 43.1140 -82.6340 268° West 155 178 7,700  Level FlightAware ADS-B
Tue 07:00:47 PM 43.1140 -82.6630 270° West 156 180 7,700  Level FlightAware ADS-B
Tue 07:01:03 PM 43.1140 -82.6770 270° West 157 181 7,700  Level FlightAware ADS-B
Tue 07:01:33 PM 43.1130 -82.7050 267° West 157 181 7,700  Level FlightAware ADS-B
Tue 07:02:03 PM 43.1120 -82.7280 267° West 157 181 7,700  Level FlightAware ADS-B
Tue 07:02:39 PM 43.1120 -82.7730 270° West 158 182 7,700  Level FlightAware ADS-B
Tue 07:02:54 PM 43.1110 -82.7840 263° West 157 181 7,700  Level FlightAware ADS-B
Tue 07:05:47 PM 43.1070 -82.9620 268° West 159 183 7,700  Level FlightAware ADS-B
Tue 07:08:07 PM 43.1150 -83.1010 275° West 152 175 7,700  Level FlightAware ADS-B
Tue 07:08:25 PM 43.1170 -83.1190 279° West 153 176 7,700  Level FlightAware ADS-B
Tue 07:09:08 PM 43.1200 -83.1560 276° West 153 176 7,700 162 Level FlightAware ADS-B
Tue 07:10:16 PM 43.1000 -83.2167 276° West 150 173 8,000 140 Climbing Toronto Center
Tue 07:11:17 PM 43.1167 -83.2667 295° West 150 173 8,000  Level Toronto Center
Tue 07:12:16 PM 43.1167 -83.3333 270° West 150 173 8,000  Level Toronto Center
Tue 07:13:16 PM 43.1167 -83.3833 270° West 150 173 8,000  Level Toronto Center
Tue 07:14:16 PM 43.1333 -83.4500 289° West 150 173 8,000  Level Toronto Center
Tue 07:15:16 PM 43.1333 -83.5000 270° West 150 173 8,000  Level Toronto Center
Tue 07:16:16 PM 43.1333 -83.5667 270° West 160 184 8,000  Level Toronto Center
Tue 07:17:16 PM 43.1333 -83.6167 270° West 160 184 8,000  Level Toronto Center
Tue 07:18:16 PM 43.1333 -83.6833 270° West 160 184 8,000  Level Toronto Center
Tue 07:19:16 PM 43.1167 -83.7500 251° West 160 184 8,000  Level Toronto Center
Tue 07:20:16 PM 43.1167 -83.8167 270° West 160 184 8,000  Level Toronto Center
Tue 07:21:40 PM 43.1281 -83.8853 283° West 159 183 8,000  Level Chicago Center
Tue 07:22:42 PM 43.1247 -83.9453 266° West 159 183 8,000  Level Chicago Center
Tue 07:23:44 PM 43.1236 -84.0064 269° West 159 183 8,000  Level Chicago Center
Tue 07:24:46 PM 43.1197 -84.0786 266° West 159 183 8,000  Level Chicago Center
Tue 07:25:48 PM 43.1172 -84.1386 267° West 160 184 8,000  Level Chicago Center
Tue 07:26:50 PM 43.1161 -84.2006 269° West 162 186 8,000  Level Chicago Center
Tue 07:27:52 PM 43.1133 -84.2606 266° West 161 185 8,000  Level Chicago Center
Tue 07:28:55 PM 43.1100 -84.3203 266° West 160 184 8,000  Level Chicago Center
Tue 07:29:57 PM 43.1067 -84.3811 266° West 160 184 8,000  Level Chicago Center
Tue 07:30:59 PM 43.1044 -84.4536 268° West 160 184 8,000  Level Chicago Center
Tue 07:32:01 PM 43.1025 -84.5133 267° West 159 183 8,000  Level Chicago Center
Tue 07:33:03 PM 43.0994 -84.5731 266° West 159 183 8,000  Level Chicago Center
Tue 07:34:05 PM 43.0967 -84.6339 266° West 160 184 8,000  Level Chicago Center
Tue 07:35:07 PM 43.0944 -84.6936 267° West 158 182 8,000  Level Chicago Center
Tue 07:36:09 PM 43.0906 -84.7539 265° West 160 184 8,000  Level Chicago Center
Tue 07:37:11 PM 43.0878 -84.8256 267° West 159 183 8,000  Level Chicago Center
Tue 07:38:13 PM 43.0844 -84.8850 266° West 158 182 8,000  Level Chicago Center
Tue 07:39:15 PM 43.0819 -84.9461 267° West 159 183 8,000  Level Chicago Center
Tue 07:40:18 PM 43.0792 -85.0058 266° West 158 182 8,000  Level Chicago Center
Tue 07:41:20 PM 43.0758 -85.0661 266° West 160 184 8,000  Level Chicago Center
Tue 07:42:22 PM 43.0725 -85.1375 266° West 159 183 8,000  Level Chicago Center
Tue 07:43:24 PM 43.0697 -85.1967 266° West 158 182 8,000  Level Chicago Center
Tue 07:44:26 PM 43.0675 -85.2569 267° West 160 184 8,000  Level Chicago Center
Tue 07:45:28 PM 43.0647 -85.3161 266° West 158 182 8,000  Level Chicago Center
Tue 07:46:30 PM 43.0611 -85.3758 265° West 159 183 8,000  Level Chicago Center
Tue 07:47:32 PM 43.0578 -85.4356 266° West 159 183 8,000  Level Chicago Center
Tue 07:48:34 PM 43.0542 -85.5064 266° West 158 182 8,000  Level Chicago Center
Tue 07:49:36 PM 43.0514 -85.5633 266° West 152 175 8,000  Level Chicago Center
Tue 07:50:39 PM 43.0481 -85.6233 266° West 157 181 8,000  Level Chicago Center
Tue 07:51:41 PM 43.0444 -85.6825 265° West 158 182 8,000  Level Chicago Center
Tue 07:52:43 PM 43.0417 -85.7422 266° West 158 182 8,000  Level Chicago Center
Tue 07:53:45 PM 43.0386 -85.8017 266° West 156 180 8,000  Level Chicago Center
Tue 07:54:47 PM 43.0344 -85.8731 265° West 157 181 8,000  Level Chicago Center
Tue 07:55:49 PM 43.0311 -85.9311 266° West 152 175 8,000  Level Chicago Center
Tue 07:56:51 PM 43.0267 -85.9936 264° West 157 181 8,000  Level Chicago Center
Tue 07:57:53 PM 43.0239 -86.0575 267° West 162 186 8,000  Level Chicago Center
Tue 07:58:55 PM 43.0203 -86.1161 265° West 156 180 8,000  Level Chicago Center
Tue 07:59:57 PM 43.0172 -86.1753 266° West 156 180 8,000  Level Chicago Center
Tue 08:00:59 PM 43.0136 -86.2347 265° West 157 181 8,000  Level Chicago Center
Tue 08:02:01 PM 43.0108 -86.2947 266° West 158 182 8,000  Level Chicago Center
Tue 08:03:04 PM 43.0061 -86.3678 265° West 160 184 8,000  Level Chicago Center
Tue 08:04:06 PM 43.0028 -86.4261 266° West 155 178 8,000  Level Chicago Center
Tue 08:05:08 PM 42.9986 -86.4869 265° West 158 182 8,000  Level Chicago Center
Tue 08:06:10 PM 42.9956 -86.5481 266° West 162 186 8,000  Level Chicago Center
Tue 08:07:12 PM 42.9917 -86.6078 265° West 161 185 8,000 -45 Level Chicago Center
Tue 08:12:54 PM 42.9690 -86.9610 265° West 158 182 7,700 -46 Descending FlightAware ADS-B
Tue 08:13:41 PM 42.9660 -87.0070 265° West 158 182 7,700  Level FlightAware ADS-B
Tue 08:14:07 PM 42.9640 -87.0350 264° West 158 182 7,700  Level FlightAware ADS-B
Tue 08:14:37 PM 42.9620 -87.0620 264° West 157 181 7,700  Level FlightAware ADS-B
Tue 08:14:54 PM 42.9610 -87.0800 266° West 157 181 7,700  Level FlightAware ADS-B
Tue 08:15:19 PM 42.9600 -87.1010 266° West 157 181 7,700 220 Level FlightAware ADS-B
Tue 08:16:16 PM 42.9500 -87.1500 266° West 158 182 8,000 154 Climbing KMKE
Tue 08:17:16 PM 42.9500 -87.2167 270° West 159 183 8,000  Level KMKE
Tue 08:18:16 PM 42.9500 -87.2833 270° West 159 183 8,000  Level KMKE
Tue 08:19:16 PM 42.9500 -87.3333 270° West 162 186 8,000  Level KMKE
Tue 08:20:16 PM 42.9333 -87.4000 251° West 159 183 8,000 -48 Level KMKE
Tue 08:25:29 PM 42.9180 -87.7150 251° West 161 185 7,700 -53 Descending FlightAware ADS-B
Tue 08:25:55 PM 42.9160 -87.7430 264° West 161 185 7,700  Level FlightAware ADS-B
Tue 08:26:27 PM 42.9140 -87.7760 265° West 165 190 7,700  Level FlightAware ADS-B
Tue 08:26:39 PM 42.9130 -87.7880 264° West 168 193 7,700  Level FlightAware ADS-B
Tue 08:27:06 PM 42.9110 -87.8160 264° West 169 194 7,700  Level FlightAware ADS-B
Tue 08:27:31 PM 42.9090 -87.8440 264° West 169 194 7,700  Level FlightAware ADS-B
Tue 08:27:52 PM 42.9070 -87.8660 263° West 168 193 7,700  Level FlightAware ADS-B
Tue 08:28:05 PM 42.9060 -87.8800 264° West 169 194 7,700  Level FlightAware ADS-B
Tue 08:28:27 PM 42.9050 -87.9020 266° West 168 193 7,700  Level FlightAware ADS-B
Tue 08:29:01 PM 42.9020 -87.9350 263° West 168 193 7,700  Level FlightAware ADS-B
Tue 08:29:35 PM 42.8990 -87.9750 264° West 167 192 7,700  Level FlightAware ADS-B
Tue 08:30:05 PM 42.8970 -88.0060 265° West 168 193 7,700  Level FlightAware ADS-B
Tue 08:30:27 PM 42.8950 -88.0290 263° West 168 193 7,700  Level FlightAware ADS-B
Tue 08:30:57 PM 42.8930 -88.0620 265° West 168 193 7,700  Level FlightAware ADS-B
Tue 08:31:25 PM 42.8900 -88.0910 262° West 170 196 7,700  Level FlightAware ADS-B
Tue 08:31:57 PM 42.8880 -88.1250 265° West 169 194 7,700  Level FlightAware ADS-B
Tue 08:32:30 PM 42.8860 -88.1570 265° West 168 193 7,700  Level FlightAware ADS-B
Tue 08:33:04 PM 42.8830 -88.1970 264° West 169 194 7,700  Level FlightAware ADS-B
Tue 08:33:21 PM 42.8810 -88.2140 261° West 167 192 7,700  Level FlightAware ADS-B
Tue 08:33:45 PM 42.8790 -88.2390 264° West 166 191 7,700  Level FlightAware ADS-B
Tue 08:34:01 PM 42.8780 -88.2560 265° West 165 190 7,700  Level FlightAware ADS-B
Tue 08:34:25 PM 42.8760 -88.2810 264° West 166 191 7,700  Level FlightAware ADS-B
Tue 08:34:42 PM 42.8750 -88.2980 265° West 166 191 7,700  Level FlightAware ADS-B
Tue 08:35:34 PM 42.8700 -88.3530 263° West 169 194 7,700  Level FlightAware ADS-B
Tue 08:35:58 PM 42.8680 -88.3770 264° West 167 192 7,700  Level FlightAware ADS-B
Tue 08:36:17 PM 42.8670 -88.3980 266° West 167 192 7,700  Level FlightAware ADS-B
Tue 08:36:42 PM 42.8650 -88.4250 264° West 167 192 7,700  Level FlightAware ADS-B
Tue 08:37:10 PM 42.8620 -88.4540 262° West 169 194 7,700  Level FlightAware ADS-B
Tue 08:37:35 PM 42.8600 -88.4810 264° West 167 192 7,700  Level FlightAware ADS-B
Tue 08:38:06 PM 42.8570 -88.5120 262° West 167 192 7,700  Level FlightAware ADS-B
Tue 08:38:28 PM 42.8550 -88.5370 264° West 165 190 7,700  Level FlightAware ADS-B
Tue 08:38:54 PM 42.8530 -88.5640 264° West 168 193 7,700  Level FlightAware ADS-B
Tue 08:39:18 PM 42.8510 -88.5890 264° West 166 191 7,700  Level FlightAware ADS-B
Tue 08:39:45 PM 42.8490 -88.6160 264° West 164 189 7,700  Level FlightAware ADS-B
Tue 08:40:14 PM 42.8470 -88.6470 265° West 165 190 7,700  Level FlightAware ADS-B
Tue 08:40:40 PM 42.8450 -88.6740 264° West 163 188 7,700  Level FlightAware ADS-B
Tue 08:41:10 PM 42.8430 -88.7050 265° West 164 189 7,700  Level FlightAware ADS-B
Tue 08:41:26 PM 42.8410 -88.7210 260° West 164 189 7,700  Level FlightAware ADS-B
Tue 08:41:49 PM 42.8400 -88.7440 267° West 164 189 7,700  Level FlightAware ADS-B
Tue 08:42:17 PM 42.8370 -88.7730 262° West 167 192 7,700  Level FlightAware ADS-B
Tue 08:42:28 PM 42.8360 -88.7850 264° West 166 191 7,700  Level FlightAware ADS-B
Tue 08:43:02 PM 42.8330 -88.8210 264° West 166 191 7,700  Level FlightAware ADS-B
Tue 08:43:28 PM 42.8310 -88.8460 264° West 166 191 7,700  Level FlightAware ADS-B
Tue 08:43:53 PM 42.8290 -88.8710 264° West 165 190 7,700  Level FlightAware ADS-B
Tue 08:44:26 PM 42.8260 -88.9080 264° West 168 193 7,700  Level FlightAware ADS-B
Tue 08:44:50 PM 42.8240 -88.9320 264° West 168 193 7,700  Level FlightAware ADS-B
Tue 08:45:19 PM 42.8210 -88.9620 262° West 166 191 7,700  Level FlightAware ADS-B
Tue 08:45:45 PM 42.8190 -88.9900 264° West 167 192 7,700  Level FlightAware ADS-B
Tue 08:46:14 PM 42.8170 -89.0200 265° West 167 192 7,700  Level FlightAware ADS-B
Tue 08:46:42 PM 42.8140 -89.0490 262° West 167 192 7,700  Level FlightAware ADS-B
Tue 08:47:10 PM 42.8120 -89.0780 265° West 163 188 7,700  Level FlightAware ADS-B
Tue 08:47:38 PM 42.8090 -89.1070 262° West 165 190 7,700  Level FlightAware ADS-B
Tue 08:48:06 PM 42.8070 -89.1350 264° West 165 190 7,700  Level FlightAware ADS-B
Tue 08:48:26 PM 42.8050 -89.1570 263° West 165 190 7,700  Level FlightAware ADS-B
Tue 08:48:44 PM 42.8040 -89.1750 266° West 167 192 7,700  Level FlightAware ADS-B
Tue 08:49:11 PM 42.8010 -89.2040 262° West 167 192 7,700  Level FlightAware ADS-B
Tue 08:49:40 PM 42.7990 -89.2330 265° West 168 193 7,700  Level FlightAware ADS-B
Tue 08:50:08 PM 42.7960 -89.2630 262° West 168 193 7,700  Level FlightAware ADS-B
Tue 08:50:37 PM 42.7930 -89.2940 262° West 166 191 7,700  Level FlightAware ADS-B
Tue 08:51:05 PM 42.7910 -89.3220 264° West 168 193 7,700  Level FlightAware ADS-B
Tue 08:51:32 PM 42.7890 -89.3510 265° West 169 194 7,700  Level FlightAware ADS-B
Tue 08:51:44 PM 42.7880 -89.3630 264° West 169 194 7,700  Level FlightAware ADS-B
Tue 08:52:12 PM 42.7850 -89.3930 262° West 167 192 7,700  Level FlightAware ADS-B
Tue 08:52:43 PM 42.7830 -89.4250 265° West 169 194 7,700  Level FlightAware ADS-B
Tue 08:53:10 PM 42.7800 -89.4540 262° West 166 191 7,700  Level FlightAware ADS-B
Tue 08:53:30 PM 42.7780 -89.4750 263° West 169 194 7,700  Level FlightAware ADS-B
Tue 08:53:59 PM 42.7750 -89.5070 263° West 169 194 7,700  Level FlightAware ADS-B
Tue 08:54:26 PM 42.7730 -89.5340 264° West 169 194 7,700  Level FlightAware ADS-B
Tue 08:54:38 PM 42.7710 -89.5470 258° West 169 194 7,700  Level FlightAware ADS-B
Tue 08:55:04 PM 42.7690 -89.5740 264° West 167 192 7,700  Level FlightAware ADS-B
Tue 08:55:26 PM 42.7670 -89.5990 264° West 167 192 7,700 -218 Level FlightAware ADS-B
Tue 08:55:59 PM 42.7660 -89.6340 268° West 180 207 7,500 -526 Descending FlightAware ADS-B
Tue 08:56:23 PM 42.7660 -89.6620 270° West 187 215 7,200 -735 Descending FlightAware ADS-B
Tue 08:56:48 PM 42.7660 -89.6920 270° West 190 219 6,900 -643 Descending FlightAware ADS-B
Tue 08:57:47 PM 42.7660 -89.7610 270° West 186 214 6,300 -695 Descending FlightAware ADS-B
Tue 08:58:23 PM 42.7650 -89.8030 268° West 187 215 5,800 -774 Descending FlightAware ADS-B
Tue 08:58:49 PM 42.7650 -89.8340 270° West 186 214 5,500 -667 Descending FlightAware ADS-B
Tue 08:59:17 PM 42.7650 -89.8670 270° West 185 213 5,200 -621 Descending FlightAware ADS-B
Tue 08:59:47 PM 42.7650 -89.9010 270° West 183 211 4,900 -724 Descending FlightAware ADS-B
Tue 09:00:15 PM 42.7650 -89.9330 270° West 185 213 4,500 -724 Descending FlightAware ADS-B
Tue 09:00:45 PM 42.7650 -89.9670 270° West 185 213 4,200 -643 Descending FlightAware ADS-B
Tue 09:01:11 PM 42.7650 -89.9980 270° West 184 212 3,900 -738 Descending FlightAware ADS-B
Tue 09:01:50 PM 42.7650 -90.0420 270° West 181 208 3,400 -725 Descending FlightAware ADS-B
Tue 09:02:42 PM 42.7650 -90.1010 270° West 181 208 2,800 -506 Descending FlightAware ADS-B
Tue 09:03:13 PM 42.7650 -90.1360 270° West 167 192 2,700 -102 Descending FlightAware ADS-B
Tue 09:03:41 PM 42.7650 -90.1640 270° West 156 180 2,700  Level FlightAware ADS-B
Tue 09:04:09 PM 42.7620 -90.1900 261° West 148 170 2,700  Level FlightAware ADS-B
Tue 09:04:31 PM 42.7560 -90.2080 246° West 148 170 2,700  Level FlightAware ADS-B
Tue 09:05:01 PM 42.7490 -90.2360 251° West 156 180 2,700  Level FlightAware ADS-B
Tue 09:05:27 PM 42.7420 -90.2600 248° West 159 183 2,700  Level FlightAware ADS-B
Tue 09:05:57 PM 42.7350 -90.2890 252° West 162 186 2,700 -150 Level FlightAware ADS-B
Tue 09:06:07 PM 42.7350 -90.2990 270° West 169 194 2,600 -80 Descending FlightAware ADS-B
Tue 09:07:12 PM 42.7430 -90.3600 280° West 161 185 2,600  Level FlightAware ADS-B

Login

Don't have an account? Register now (free) for customized features, flight alerts, and more!